createdAt,value
2023-01-29T00:04:58.719Z,96.77
2023-01-29T00:14:54.599Z,95.62
2023-01-29T00:24:54.848Z,95.93
2023-01-29T00:34:55.032Z,96.04
2023-01-29T00:44:55.279Z,95.72
2023-01-29T00:54:55.497Z,96.14
2023-01-29T01:04:55.716Z,96.04
2023-01-29T01:14:56.179Z,96.56
2023-01-29T01:24:56.074Z,96.66
2023-01-29T01:34:56.277Z,96.10
2023-01-29T01:44:56.520Z,96.10
2023-01-29T01:54:56.712Z,95.68
2023-01-29T02:04:56.945Z,94.68
2023-01-29T02:14:57.163Z,89.97
2023-01-29T02:24:57.293Z,93.11
2023-01-29T02:34:57.483Z,95.09
2023-01-29T02:44:57.723Z,90.39
2023-01-29T02:54:57.913Z,89.86
2023-01-29T03:04:58.165Z,89.86
2023-01-29T03:14:58.375Z,88.92
2023-01-29T03:24:58.605Z,88.61
2023-01-29T03:34:58.801Z,87.98
2023-01-29T03:44:59.016Z,88.29
2023-01-29T03:54:59.228Z,89.13
2023-01-29T04:04:59.447Z,89.23
2023-01-29T04:14:59.684Z,87.66
2023-01-29T04:24:59.800Z,87.66
2023-01-29T04:35:00.016Z,88.61
2023-01-29T04:45:00.222Z,86.72
2023-01-29T04:55:00.754Z,87.46
2023-01-29T05:05:00.642Z,88.19
2023-01-29T05:15:00.861Z,88.40
2023-01-29T05:25:01.076Z,88.19
2023-01-29T05:35:01.292Z,87.88
2023-01-29T05:45:01.605Z,87.46
2023-01-29T05:55:01.725Z,87.29
2023-01-29T06:05:02.091Z,87.92
2023-01-29T06:15:02.161Z,88.12
2023-01-29T06:25:02.360Z,88.79
2023-01-29T06:35:02.552Z,88.90
2023-01-29T06:45:02.755Z,88.48
2023-01-29T06:55:02.941Z,88.69
2023-01-29T07:05:03.162Z,88.69
2023-01-29T07:15:03.369Z,86.91
2023-01-29T07:25:03.699Z,87.01
2023-01-29T07:35:03.779Z,86.18
2023-01-29T07:45:04.264Z,85.09
2023-01-29T07:55:04.090Z,85.09
2023-01-29T08:05:04.324Z,84.74
2023-01-29T08:15:04.554Z,84.39
2023-01-29T08:25:08.572Z,84.11
2023-01-29T08:35:05.027Z,84.84
2023-01-29T08:45:05.136Z,83.76
2023-01-29T08:55:05.251Z,82.78
2023-01-29T09:05:05.568Z,82.92
2023-01-29T09:15:05.689Z,82.89
2023-01-29T09:25:05.894Z,82.26
2023-01-29T09:35:06.112Z,81.00
2023-01-29T09:45:06.364Z,81.66
2023-01-29T09:55:06.465Z,80.72
2023-01-29T10:05:06.701Z,79.71
2023-01-29T10:15:06.887Z,79.99
2023-01-29T10:25:07.004Z,80.37
2023-01-29T10:35:07.444Z,77.13
2023-01-29T10:45:07.737Z,76.99
2023-01-29T10:55:07.604Z,74.91
2023-01-29T11:05:09.425Z,74.67
2023-01-29T11:15:08.011Z,73.42
2023-01-29T11:25:08.219Z,74.21
2023-01-29T11:35:08.451Z,74.46
2023-01-29T11:45:08.805Z,74.91
2023-01-29T11:55:08.875Z,73.14
2023-01-29T12:05:09.106Z,74.56
2023-01-29T12:15:09.334Z,76.33
2023-01-29T12:25:09.461Z,77.58
2023-01-29T12:35:09.705Z,76.02
2023-01-29T12:45:09.833Z,73.97
2023-01-29T12:55:09.922Z,72.56
2023-01-29T13:05:10.391Z,71.72
2023-01-29T13:15:10.297Z,72.63
2023-01-29T13:25:10.639Z,72.07
2023-01-29T13:35:10.513Z,73.39
2023-01-29T13:45:10.906Z,74.25
2023-01-29T13:55:10.978Z,75.71
2023-01-29T14:05:11.136Z,76.30
2023-01-29T14:15:11.251Z,76.40
2023-01-29T14:25:11.353Z,76.43
2023-01-29T14:35:11.602Z,76.68
2023-01-29T14:45:11.944Z,77.37
2023-01-29T14:55:12.213Z,78.87
2023-01-29T15:05:12.099Z,78.34
2023-01-29T15:15:14.188Z,79.94
2023-01-29T15:25:12.557Z,80.05
2023-01-29T15:35:13.024Z,80.82
2023-01-29T15:45:12.905Z,81.90
2023-01-29T15:55:13.270Z,83.08
2023-01-29T16:05:13.287Z,84.79
2023-01-29T16:15:13.542Z,86.02
2023-01-29T16:25:13.544Z,86.90
2023-01-29T16:35:13.663Z,87.52
2023-01-29T16:45:14.109Z,88.19
2023-01-29T16:55:14.347Z,87.56
2023-01-29T17:05:14.328Z,87.66
2023-01-29T17:15:14.569Z,87.98
2023-01-29T17:25:15.389Z,88.65
2023-01-29T17:35:15.428Z,88.75
2023-01-29T17:45:15.677Z,88.86
2023-01-29T17:55:15.560Z,89.32
2023-01-29T18:05:15.829Z,89.42
2023-01-29T18:15:16.159Z,89.17
2023-01-29T18:25:16.266Z,89.32
2023-01-29T18:35:16.198Z,89.84
2023-01-29T18:45:16.361Z,89.42
2023-01-29T18:55:16.326Z,89.07
2023-01-29T19:05:16.574Z,89.53
2023-01-29T19:15:16.697Z,89.38
2023-01-29T19:25:17.177Z,89.73
2023-01-29T19:35:16.873Z,90.16
2023-01-29T19:45:17.031Z,90.23
2023-01-29T19:55:18.520Z,94.41
2023-01-29T20:05:17.507Z,93.43
2023-01-29T20:15:17.154Z,93.11
2023-01-29T20:25:17.365Z,93.11
2023-01-29T20:35:17.548Z,92.90
2023-01-29T20:45:17.746Z,93.21
2023-01-29T20:55:17.955Z,92.69
2023-01-29T21:05:18.067Z,92.13
2023-01-29T21:15:18.276Z,93.26
2023-01-29T21:25:18.495Z,92.06
2023-01-29T21:35:18.695Z,91.33
2023-01-29T21:45:18.889Z,90.55
2023-01-29T21:55:19.087Z,91.53
2023-01-29T22:05:20.426Z,93.19
2023-01-29T22:15:20.725Z,94.71
2023-01-29T22:25:19.594Z,94.14
2023-01-29T22:35:19.793Z,93.93
2023-01-29T22:45:20.004Z,93.62
2023-01-29T22:55:20.205Z,94.60
2023-01-29T23:05:20.424Z,94.81
2023-01-29T23:15:20.616Z,94.85
2023-01-29T23:25:20.851Z,94.60
2023-01-29T23:35:21.024Z,94.56
2023-01-29T23:45:21.229Z,93.51
2023-01-29T23:55:21.428Z,91.01
